sensor_id;sensor_type;location;lat;lon;timestamp;pressure;altitude;pressure_sealevel;temperature
15845;BMP180;50807;52.436;13.346;2023-06-14T00:00:11;101341.00;;;20.00
15845;BMP180;50807;52.436;13.346;2023-06-14T00:00:42;101355.00;;;20.00
15845;BMP180;50807;52.436;13.346;2023-06-14T00:01:14;101347.00;;;20.00
15845;BMP180;50807;52.436;13.346;2023-06-14T00:01:48;101358.00;;;19.90
15845;BMP180;50807;52.436;13.346;2023-06-14T00:02:19;101348.00;;;20.00
15845;BMP180;50807;52.436;13.346;2023-06-14T00:02:51;101346.00;;;20.00
15845;BMP180;50807;52.436;13.346;2023-06-14T00:03:21;101356.00;;;20.00
15845;BMP180;50807;52.436;13.346;2023-06-14T00:03:52;101357.00;;;20.00
15845;BMP180;50807;52.436;13.346;2023-06-14T00:04:25;101356.00;;;20.00
15845;BMP180;50807;52.436;13.346;2023-06-14T00:04:56;101347.00;;;20.00
15845;BMP180;50807;52.436;13.346;2023-06-14T00:05:27;101358.00;;;20.00
15845;BMP180;50807;52.436;13.346;2023-06-14T00:06:00;101347.00;;;20.00
15845;BMP180;50807;52.436;13.346;2023-06-14T00:06:31;101355.00;;;20.00
15845;BMP180;50807;52.436;13.346;2023-06-14T00:07:02;101349.00;;;20.00
15845;BMP180;50807;52.436;13.346;2023-06-14T00:07:35;101349.00;;;20.00
15845;BMP180;50807;52.436;13.346;2023-06-14T00:08:06;101355.00;;;19.90
15845;BMP180;50807;52.436;13.346;2023-06-14T00:08:38;101355.00;;;19.90
15845;BMP180;50807;52.436;13.346;2023-06-14T00:09:11;101356.00;;;19.90
15845;BMP180;50807;52.436;13.346;2023-06-14T00:09:43;101345.00;;;19.90
15845;BMP180;50807;52.436;13.346;2023-06-14T00:10:14;101351.00;;;19.90
15845;BMP180;50807;52.436;13.346;2023-06-14T00:10:45;101347.00;;;19.90
15845;BMP180;50807;52.436;13.346;2023-06-14T00:11:17;101347.00;;;19.90
15845;BMP180;50807;52.436;13.346;2023-06-14T00:11:48;101352.00;;;19.90
15845;BMP180;50807;52.436;13.346;2023-06-14T00:12:18;101344.00;;;19.90
15845;BMP180;50807;52.436;13.346;2023-06-14T00:12:50;101356.00;;;19.90
15845;BMP180;50807;52.436;13.346;2023-06-14T00:13:21;101348.00;;;19.90
15845;BMP180;50807;52.436;13.346;2023-06-14T00:13:53;101357.00;;;19.90
15845;BMP180;50807;52.436;13.346;2023-06-14T00:14:28;101359.00;;;19.80
15845;BMP180;50807;52.436;13.346;2023-06-14T00:14:58;101351.00;;;19.90
15845;BMP180;50807;52.436;13.346;2023-06-14T00:15:32;101358.00;;;19.80
15845;BMP180;50807;52.436;13.346;2023-06-14T00:16:05;101344.00;;;19.80
15845;BMP180;50807;52.436;13.346;2023-06-14T00:16:36;101363.00;;;19.80
15845;BMP180;50807;52.436;13.346;2023-06-14T00:17:07;101356.00;;;19.80
15845;BMP180;50807;52.436;13.346;2023-06-14T00:17:39;101351.00;;;19.80
15845;BMP180;50807;52.436;13.346;2023-06-14T00:18:10;101350.00;;;19.90
15845;BMP180;50807;52.436;13.346;2023-06-14T00:18:42;101343.00;;;19.80
15845;BMP180;50807;52.436;13.346;2023-06-14T00:19:14;101341.00;;;19.80
15845;BMP180;50807;52.436;13.346;2023-06-14T00:19:51;101355.00;;;19.70
15845;BMP180;50807;52.436;13.346;2023-06-14T00:20:23;101340.00;;;19.80
15845;BMP180;50807;52.436;13.346;2023-06-14T00:20:58;101356.00;;;19.70
15845;BMP180;50807;52.436;13.346;2023-06-14T00:21:29;101345.00;;;19.80
15845;BMP180;50807;52.436;13.346;2023-06-14T00:22:04;101352.00;;;19.70
15845;BMP180;50807;52.436;13.346;2023-06-14T00:22:43;101351.00;;;19.60
15845;BMP180;50807;52.436;13.346;2023-06-14T00:23:16;101345.00;;;19.70
15845;BMP180;50807;52.436;13.346;2023-06-14T00:23:46;101355.00;;;19.80
15845;BMP180;50807;52.436;13.346;2023-06-14T00:24:17;101355.00;;;19.70
15845;BMP180;50807;52.436;13.346;2023-06-14T00:24:56;101347.00;;;19.60
15845;BMP180;50807;52.436;13.346;2023-06-14T00:25:27;101352.00;;;19.70
15845;BMP180;50807;52.436;13.346;2023-06-14T00:25:58;101351.00;;;19.70
15845;BMP180;50807;52.436;13.346;2023-06-14T00:26:30;101350.00;;;19.70
15845;BMP180;50807;52.436;13.346;2023-06-14T00:27:01;101350.00;;;19.70
15845;BMP180;50807;52.436;13.346;2023-06-14T00:27:32;101345.00;;;19.80
15845;BMP180;50807;52.436;13.346;2023-06-14T00:28:03;101342.00;;;19.70
15845;BMP180;50807;52.436;13.346;2023-06-14T00:28:35;101337.00;;;19.70
15845;BMP180;50807;52.436;13.346;2023-06-14T00:29:05;101346.00;;;19.70
15845;BMP180;50807;52.436;13.346;2023-06-14T00:29:40;101351.00;;;19.70
15845;BMP180;50807;52.436;13.346;2023-06-14T00:30:15;101352.00;;;19.60
15845;BMP180;50807;52.436;13.346;2023-06-14T00:30:46;101348.00;;;19.70
15845;BMP180;50807;52.436;13.346;2023-06-14T00:31:17;101341.00;;;19.70
15845;BMP180;50807;52.436;13.346;2023-06-14T00:31:49;101347.00;;;19.70
15845;BMP180;50807;52.436;13.346;2023-06-14T00:32:19;101356.00;;;19.70
15845;BMP180;50807;52.436;13.346;2023-06-14T00:32:55;101347.00;;;19.60
15845;BMP180;50807;52.436;13.346;2023-06-14T00:33:35;101351.00;;;19.60
15845;BMP180;50807;52.436;13.346;2023-06-14T00:34:06;101358.00;;;19.60
15845;BMP180;50807;52.436;13.346;2023-06-14T00:34:37;101347.00;;;19.60
15845;BMP180;50807;52.436;13.346;2023-06-14T00:35:13;101359.00;;;19.60
15845;BMP180;50807;52.436;13.346;2023-06-14T00:35:44;101342.00;;;19.60
15845;BMP180;50807;52.436;13.346;2023-06-14T00:36:18;101346.00;;;19.60
15845;BMP180;50807;52.436;13.346;2023-06-14T00:36:48;101363.00;;;19.70
15845;BMP180;50807;52.436;13.346;2023-06-14T00:37:22;101357.00;;;19.60
15845;BMP180;50807;52.436;13.346;2023-06-14T00:37:55;101346.00;;;19.60
15845;BMP180;50807;52.436;13.346;2023-06-14T00:38:27;101357.00;;;19.60
15845;BMP180;50807;52.436;13.346;2023-06-14T00:38:58;101357.00;;;19.60
15845;BMP180;50807;52.436;13.346;2023-06-14T00:39:29;101357.00;;;19.60
15845;BMP180;50807;52.436;13.346;2023-06-14T00:40:03;101343.00;;;19.60
15845;BMP180;50807;52.436;13.346;2023-06-14T00:40:34;101356.00;;;19.70
15845;BMP180;50807;52.436;13.346;2023-06-14T00:41:05;101359.00;;;19.60
15845;BMP180;50807;52.436;13.346;2023-06-14T00:41:37;101359.00;;;19.70
15845;BMP180;50807;52.436;13.346;2023-06-14T00:42:08;101357.00;;;19.70
15845;BMP180;50807;52.436;13.346;2023-06-14T00:42:39;101350.00;;;19.60
15845;BMP180;50807;52.436;13.346;2023-06-14T00:43:11;101346.00;;;19.60
15845;BMP180;50807;52.436;13.346;2023-06-14T00:43:42;101352.00;;;19.60
15845;BMP180;50807;52.436;13.346;2023-06-14T00:44:16;101356.00;;;19.60
15845;BMP180;50807;52.436;13.346;2023-06-14T00:44:48;101362.00;;;19.60
15845;BMP180;50807;52.436;13.346;2023-06-14T00:45:19;101367.00;;;19.60
15845;BMP180;50807;52.436;13.346;2023-06-14T00:45:52;101351.00;;;19.60
15845;BMP180;50807;52.436;13.346;2023-06-14T00:46:23;101355.00;;;19.60
15845;BMP180;50807;52.436;13.346;2023-06-14T00:46:54;101356.00;;;19.60
15845;BMP180;50807;52.436;13.346;2023-06-14T00:47:25;101349.00;;;19.50
15845;BMP180;50807;52.436;13.346;2023-06-14T00:47:57;101348.00;;;19.50
15845;BMP180;50807;52.436;13.346;2023-06-14T00:48:29;101356.00;;;19.50
15845;BMP180;50807;52.436;13.346;2023-06-14T00:49:02;101352.00;;;19.50
15845;BMP180;50807;52.436;13.346;2023-06-14T00:49:34;101357.00;;;19.60
15845;BMP180;50807;52.436;13.346;2023-06-14T00:50:07;101358.00;;;19.50
15845;BMP180;50807;52.436;13.346;2023-06-14T00:50:41;101357.00;;;19.50
15845;BMP180;50807;52.436;13.346;2023-06-14T00:51:16;101359.00;;;19.50
15845;BMP180;50807;52.436;13.346;2023-06-14T00:51:47;101356.00;;;19.50
15845;BMP180;50807;52.436;13.346;2023-06-14T00:52:19;101346.00;;;19.50
15845;BMP180;50807;52.436;13.346;2023-06-14T00:52:51;101361.00;;;19.50
15845;BMP180;50807;52.436;13.346;2023-06-14T00:53:22;101344.00;;;19.50
15845;BMP180;50807;52.436;13.346;2023-06-14T00:53:53;101357.00;;;19.50
15845;BMP180;50807;52.436;13.346;2023-06-14T00:54:25;101358.00;;;19.50
15845;BMP180;50807;52.436;13.346;2023-06-14T00:54:56;101351.00;;;19.50
15845;BMP180;50807;52.436;13.346;2023-06-14T00:55:27;101356.00;;;19.50
15845;BMP180;50807;52.436;13.346;2023-06-14T00:55:59;101349.00;;;19.50
15845;BMP180;50807;52.436;13.346;2023-06-14T00:56:30;101357.00;;;19.50
15845;BMP180;50807;52.436;13.346;2023-06-14T00:57:01;101358.00;;;19.50
15845;BMP180;50807;52.436;13.346;2023-06-14T00:57:33;101356.00;;;19.50
15845;BMP180;50807;52.436;13.346;2023-06-14T00:58:03;101348.00;;;19.40
15845;BMP180;50807;52.436;13.346;2023-06-14T00:58:34;101347.00;;;19.50
15845;BMP180;50807;52.436;13.346;2023-06-14T00:59:07;101349.00;;;19.40
15845;BMP180;50807;52.436;13.346;2023-06-14T00:59:45;101355.00;;;19.40
15845;BMP180;50807;52.436;13.346;2023-06-14T01:00:16;101344.00;;;19.40
15845;BMP180;50807;52.436;13.346;2023-06-14T01:00:48;101343.00;;;19.40
15845;BMP180;50807;52.436;13.346;2023-06-14T01:01:19;101360.00;;;19.40
15845;BMP180;50807;52.436;13.346;2023-06-14T01:01:50;101347.00;;;19.40
15845;BMP180;50807;52.436;13.346;2023-06-14T01:02:21;101355.00;;;19.40
15845;BMP180;50807;52.436;13.346;2023-06-14T01:02:56;101349.00;;;19.40
15845;BMP180;50807;52.436;13.346;2023-06-14T01:03:27;101346.00;;;19.40
15845;BMP180;50807;52.436;13.346;2023-06-14T01:03:58;101346.00;;;19.40
15845;BMP180;50807;52.436;13.346;2023-06-14T01:04:32;101343.00;;;19.40
15845;BMP180;50807;52.436;13.346;2023-06-14T01:05:05;101342.00;;;19.40
15845;BMP180;50807;52.436;13.346;2023-06-14T01:05:44;101351.00;;;19.30
15845;BMP180;50807;52.436;13.346;2023-06-14T01:06:29;101338.00;;;19.30
15845;BMP180;50807;52.436;13.346;2023-06-14T01:07:12;101352.00;;;19.20
15845;BMP180;50807;52.436;13.346;2023-06-14T01:08:05;101362.00;;;19.20
15845;BMP180;50807;52.436;13.346;2023-06-14T01:08:51;101350.00;;;19.10
15845;BMP180;50807;52.436;13.346;2023-06-14T01:09:35;101352.00;;;19.20
15845;BMP180;50807;52.436;13.346;2023-06-14T01:10:30;101351.00;;;19.10
15845;BMP180;50807;52.436;13.346;2023-06-14T01:11:26;101348.00;;;19.00
15845;BMP180;50807;52.436;13.346;2023-06-14T01:12:08;101344.00;;;19.10
15845;BMP180;50807;52.436;13.346;2023-06-14T01:12:55;101356.00;;;19.00
15845;BMP180;50807;52.436;13.346;2023-06-14T01:14:14;101345.00;;;19.10
15845;BMP180;50807;52.436;13.346;2023-06-14T01:14:48;101351.00;;;19.10
15845;BMP180;50807;52.436;13.346;2023-06-14T01:15:21;101355.00;;;19.20
15845;BMP180;50807;52.436;13.346;2023-06-14T01:15:54;101351.00;;;19.20
15845;BMP180;50807;52.436;13.346;2023-06-14T01:16:28;101344.00;;;19.20
15845;BMP180;50807;52.436;13.346;2023-06-14T01:17:01;101355.00;;;19.20
15845;BMP180;50807;52.436;13.346;2023-06-14T01:17:34;101351.00;;;19.20
15845;BMP180;50807;52.436;13.346;2023-06-14T01:18:06;101360.00;;;19.20
15845;BMP180;50807;52.436;13.346;2023-06-14T01:18:38;101346.00;;;19.20
15845;BMP180;50807;52.436;13.346;2023-06-14T01:19:12;101351.00;;;19.20
15845;BMP180;50807;52.436;13.346;2023-06-14T01:19:46;101355.00;;;19.20
15845;BMP180;50807;52.436;13.346;2023-06-14T01:20:19;101358.00;;;19.20
15845;BMP180;50807;52.436;13.346;2023-06-14T01:20:52;101352.00;;;19.20
15845;BMP180;50807;52.436;13.346;2023-06-14T01:21:26;101362.00;;;19.20
15845;BMP180;50807;52.436;13.346;2023-06-14T01:22:01;101352.00;;;19.20
15845;BMP180;50807;52.436;13.346;2023-06-14T01:22:33;101361.00;;;19.20
15845;BMP180;50807;52.436;13.346;2023-06-14T01:23:06;101359.00;;;19.20
15845;BMP180;50807;52.436;13.346;2023-06-14T01:23:37;101352.00;;;19.20
15845;BMP180;50807;52.436;13.346;2023-06-14T01:24:08;101347.00;;;19.20
15845;BMP180;50807;52.436;13.346;2023-06-14T01:24:41;101348.00;;;19.20
15845;BMP180;50807;52.436;13.346;2023-06-14T01:25:15;101360.00;;;19.20
15845;BMP180;50807;52.436;13.346;2023-06-14T01:25:48;101348.00;;;19.20
15845;BMP180;50807;52.436;13.346;2023-06-14T01:26:23;101357.00;;;19.20
15845;BMP180;50807;52.436;13.346;2023-06-14T01:26:55;101347.00;;;19.10
15845;BMP180;50807;52.436;13.346;2023-06-14T01:27:27;101350.00;;;19.20
15845;BMP180;50807;52.436;13.346;2023-06-14T01:28:02;101357.00;;;19.20
15845;BMP180;50807;52.436;13.346;2023-06-14T01:28:41;101347.00;;;19.10
15845;BMP180;50807;52.436;13.346;2023-06-14T01:29:13;101344.00;;;19.10
15845;BMP180;50807;52.436;13.346;2023-06-14T01:29:48;101348.00;;;19.10
15845;BMP180;50807;52.436;13.346;2023-06-14T01:30:22;101346.00;;;19.10
15845;BMP180;50807;52.436;13.346;2023-06-14T01:30:54;101347.00;;;19.10
15845;BMP180;50807;52.436;13.346;2023-06-14T01:31:26;101341.00;;;19.10
15845;BMP180;50807;52.436;13.346;2023-06-14T01:32:01;101349.00;;;19.10
15845;BMP180;50807;52.436;13.346;2023-06-14T01:32:32;101339.00;;;19.10
15845;BMP180;50807;52.436;13.346;2023-06-14T01:33:05;101339.00;;;19.10
15845;BMP180;50807;52.436;13.346;2023-06-14T01:33:37;101341.00;;;19.10
15845;BMP180;50807;52.436;13.346;2023-06-14T01:34:09;101348.00;;;19.10
15845;BMP180;50807;52.436;13.346;2023-06-14T01:34:40;101343.00;;;19.10
15845;BMP180;50807;52.436;13.346;2023-06-14T01:35:12;101346.00;;;19.10
15845;BMP180;50807;52.436;13.346;2023-06-14T01:35:48;101342.00;;;19.10
15845;BMP180;50807;52.436;13.346;2023-06-14T01:36:20;101342.00;;;19.10
15845;BMP180;50807;52.436;13.346;2023-06-14T01:36:53;101338.00;;;19.10
15845;BMP180;50807;52.436;13.346;2023-06-14T01:37:25;101339.00;;;19.10
15845;BMP180;50807;52.436;13.346;2023-06-14T01:37:58;101342.00;;;19.10
15845;BMP180;50807;52.436;13.346;2023-06-14T01:38:32;101337.00;;;19.00
15845;BMP180;50807;52.436;13.346;2023-06-14T01:39:05;101346.00;;;19.00
15845;BMP180;50807;52.436;13.346;2023-06-14T01:39:37;101338.00;;;19.10
15845;BMP180;50807;52.436;13.346;2023-06-14T01:40:10;101345.00;;;19.10
15845;BMP180;50807;52.436;13.346;2023-06-14T01:40:44;101348.00;;;19.00
15845;BMP180;50807;52.436;13.346;2023-06-14T01:41:17;101343.00;;;19.00
15845;BMP180;50807;52.436;13.346;2023-06-14T01:41:49;101352.00;;;19.00
15845;BMP180;50807;52.436;13.346;2023-06-14T01:42:22;101343.00;;;19.00
15845;BMP180;50807;52.436;13.346;2023-06-14T01:42:54;101347.00;;;19.00
15845;BMP180;50807;52.436;13.346;2023-06-14T01:43:25;101344.00;;;19.00
15845;BMP180;50807;52.436;13.346;2023-06-14T01:43:58;101345.00;;;19.00
15845;BMP180;50807;52.436;13.346;2023-06-14T01:44:31;101344.00;;;19.00
15845;BMP180;50807;52.436;13.346;2023-06-14T01:45:03;101346.00;;;19.00
15845;BMP180;50807;52.436;13.346;2023-06-14T01:45:36;101348.00;;;19.00
15845;BMP180;50807;52.436;13.346;2023-06-14T01:46:10;101356.00;;;19.00
15845;BMP180;50807;52.436;13.346;2023-06-14T01:46:43;101341.00;;;19.00
15845;BMP180;50807;52.436;13.346;2023-06-14T01:47:15;101349.00;;;19.00
15845;BMP180;50807;52.436;13.346;2023-06-14T01:47:47;101342.00;;;19.00
15845;BMP180;50807;52.436;13.346;2023-06-14T01:48:20;101345.00;;;19.00
15845;BMP180;50807;52.436;13.346;2023-06-14T01:48:51;101345.00;;;19.00
15845;BMP180;50807;52.436;13.346;2023-06-14T01:49:23;101344.00;;;18.90
15845;BMP180;50807;52.436;13.346;2023-06-14T01:49:54;101345.00;;;19.00
15845;BMP180;50807;52.436;13.346;2023-06-14T01:50:28;101339.00;;;18.90
15845;BMP180;50807;52.436;13.346;2023-06-14T01:51:01;101344.00;;;19.00
15845;BMP180;50807;52.436;13.346;2023-06-14T01:51:32;101340.00;;;18.90
15845;BMP180;50807;52.436;13.346;2023-06-14T01:52:04;101348.00;;;18.90
15845;BMP180;50807;52.436;13.346;2023-06-14T01:52:37;101346.00;;;18.90
15845;BMP180;50807;52.436;13.346;2023-06-14T01:53:10;101342.00;;;18.90
15845;BMP180;50807;52.436;13.346;2023-06-14T01:53:42;101337.00;;;18.90
15845;BMP180;50807;52.436;13.346;2023-06-14T01:54:13;101340.00;;;18.90
15845;BMP180;50807;52.436;13.346;2023-06-14T01:54:45;101343.00;;;18.90
15845;BMP180;50807;52.436;13.346;2023-06-14T01:55:18;101335.00;;;18.90
15845;BMP180;50807;52.436;13.346;2023-06-14T01:55:49;101333.00;;;18.90
15845;BMP180;50807;52.436;13.346;2023-06-14T01:56:24;101335.00;;;18.90
15845;BMP180;50807;52.436;13.346;2023-06-14T01:56:57;101335.00;;;18.90
15845;BMP180;50807;52.436;13.346;2023-06-14T01:57:28;101341.00;;;18.80
15845;BMP180;50807;52.436;13.346;2023-06-14T01:58:00;101341.00;;;18.90
15845;BMP180;50807;52.436;13.346;2023-06-14T01:58:32;101339.00;;;18.90
15845;BMP180;50807;52.436;13.346;2023-06-14T01:59:03;101347.00;;;18.90
15845;BMP180;50807;52.436;13.346;2023-06-14T01:59:34;101344.00;;;18.80
15845;BMP180;50807;52.436;13.346;2023-06-14T02:00:07;101347.00;;;18.80
15845;BMP180;50807;52.436;13.346;2023-06-14T02:00:43;101344.00;;;18.80
15845;BMP180;50807;52.436;13.346;2023-06-14T02:01:14;101342.00;;;18.80
15845;BMP180;50807;52.436;13.346;2023-06-14T02:01:47;101351.00;;;18.80
15845;BMP180;50807;52.436;13.346;2023-06-14T02:02:19;101347.00;;;18.80
15845;BMP180;50807;52.436;13.346;2023-06-14T02:02:50;101345.00;;;18.80
15845;BMP180;50807;52.436;13.346;2023-06-14T02:03:21;101356.00;;;18.80
15845;BMP180;50807;52.436;13.346;2023-06-14T02:03:53;101356.00;;;18.80
15845;BMP180;50807;52.436;13.346;2023-06-14T02:04:25;101356.00;;;18.80
15845;BMP180;50807;52.436;13.346;2023-06-14T02:04:56;101350.00;;;18.80
15845;BMP180;50807;52.436;13.346;2023-06-14T02:05:28;101345.00;;;18.80
15845;BMP180;50807;52.436;13.346;2023-06-14T02:06:00;101345.00;;;18.80
15845;BMP180;50807;52.436;13.346;2023-06-14T02:06:32;101351.00;;;18.80
15845;BMP180;50807;52.436;13.346;2023-06-14T02:07:05;101350.00;;;18.80
15845;BMP180;50807;52.436;13.346;2023-06-14T02:07:36;101352.00;;;18.80
15845;BMP180;50807;52.436;13.346;2023-06-14T02:08:07;101359.00;;;18.80
15845;BMP180;50807;52.436;13.346;2023-06-14T02:08:38;101357.00;;;18.80
15845;BMP180;50807;52.436;13.346;2023-06-14T02:09:12;101345.00;;;18.80
15845;BMP180;50807;52.436;13.346;2023-06-14T02:09:42;101357.00;;;18.80
15845;BMP180;50807;52.436;13.346;2023-06-14T02:10:14;101352.00;;;18.80
15845;BMP180;50807;52.436;13.346;2023-06-14T02:10:46;101363.00;;;18.80
15845;BMP180;50807;52.436;13.346;2023-06-14T02:11:17;101360.00;;;18.80
15845;BMP180;50807;52.436;13.346;2023-06-14T02:11:48;101358.00;;;18.80
15845;BMP180;50807;52.436;13.346;2023-06-14T02:12:20;101352.00;;;18.80
15845;BMP180;50807;52.436;13.346;2023-06-14T02:12:51;101362.00;;;18.80
15845;BMP180;50807;52.436;13.346;2023-06-14T02:13:22;101361.00;;;18.70
15845;BMP180;50807;52.436;13.346;2023-06-14T02:13:54;101361.00;;;18.70
15845;BMP180;50807;52.436;13.346;2023-06-14T02:14:25;101359.00;;;18.80
15845;BMP180;50807;52.436;13.346;2023-06-14T02:14:57;101362.00;;;18.70
15845;BMP180;50807;52.436;13.346;2023-06-14T02:15:28;101363.00;;;18.70
15845;BMP180;50807;52.436;13.346;2023-06-14T02:16:04;101363.00;;;18.70
15845;BMP180;50807;52.436;13.346;2023-06-14T02:16:36;101357.00;;;18.70
15845;BMP180;50807;52.436;13.346;2023-06-14T02:17:07;101351.00;;;18.70
15845;BMP180;50807;52.436;13.346;2023-06-14T02:17:38;101352.00;;;18.70
15845;BMP180;50807;52.436;13.346;2023-06-14T02:18:10;101356.00;;;18.70
15845;BMP180;50807;52.436;13.346;2023-06-14T02:18:41;101351.00;;;18.70
15845;BMP180;50807;52.436;13.346;2023-06-14T02:19:13;101358.00;;;18.70
15845;BMP180;50807;52.436;13.346;2023-06-14T02:19:44;101357.00;;;18.70
15845;BMP180;50807;52.436;13.346;2023-06-14T02:20:16;101360.00;;;18.70
15845;BMP180;50807;52.436;13.346;2023-06-14T02:20:48;101359.00;;;18.60
15845;BMP180;50807;52.436;13.346;2023-06-14T02:21:19;101355.00;;;18.60
15845;BMP180;50807;52.436;13.346;2023-06-14T02:21:50;101350.00;;;18.70
15845;BMP180;50807;52.436;13.346;2023-06-14T02:22:22;101351.00;;;18.70
15845;BMP180;50807;52.436;13.346;2023-06-14T02:22:54;101348.00;;;18.70
15845;BMP180;50807;52.436;13.346;2023-06-14T02:23:25;101352.00;;;18.70
15845;BMP180;50807;52.436;13.346;2023-06-14T02:23:57;101349.00;;;18.70
15845;BMP180;50807;52.436;13.346;2023-06-14T02:24:30;101350.00;;;18.70
15845;BMP180;50807;52.436;13.346;2023-06-14T02:25:01;101350.00;;;18.70
15845;BMP180;50807;52.436;13.346;2023-06-14T02:25:33;101356.00;;;18.70
15845;BMP180;50807;52.436;13.346;2023-06-14T02:26:04;101346.00;;;18.70
15845;BMP180;50807;52.436;13.346;2023-06-14T02:26:36;101348.00;;;18.70
15845;BMP180;50807;52.436;13.346;2023-06-14T02:27:08;101350.00;;;18.60
15845;BMP180;50807;52.436;13.346;2023-06-14T02:27:40;101359.00;;;18.60
15845;BMP180;50807;52.436;13.346;2023-06-14T02:28:12;101345.00;;;18.70
15845;BMP180;50807;52.436;13.346;2023-06-14T02:28:43;101345.00;;;18.70
15845;BMP180;50807;52.436;13.346;2023-06-14T02:29:14;101355.00;;;18.70
15845;BMP180;50807;52.436;13.346;2023-06-14T02:29:47;101361.00;;;18.60
15845;BMP180;50807;52.436;13.346;2023-06-14T02:30:18;101356.00;;;18.60
15845;BMP180;50807;52.436;13.346;2023-06-14T02:30:50;101351.00;;;18.70
15845;BMP180;50807;52.436;13.346;2023-06-14T02:31:21;101352.00;;;18.60
15845;BMP180;50807;52.436;13.346;2023-06-14T02:31:53;101357.00;;;18.70
15845;BMP180;50807;52.436;13.346;2023-06-14T02:32:24;101345.00;;;18.60
15845;BMP180;50807;52.436;13.346;2023-06-14T02:32:55;101360.00;;;18.60
15845;BMP180;50807;52.436;13.346;2023-06-14T02:33:26;101352.00;;;18.60
15845;BMP180;50807;52.436;13.346;2023-06-14T02:33:58;101360.00;;;18.60
15845;BMP180;50807;52.436;13.346;2023-06-14T02:34:29;101360.00;;;18.60
15845;BMP180;50807;52.436;13.346;2023-06-14T02:35:00;101357.00;;;18.60
15845;BMP180;50807;52.436;13.346;2023-06-14T02:35:32;101365.00;;;18.60
15845;BMP180;50807;52.436;13.346;2023-06-14T02:36:03;101352.00;;;18.60
15845;BMP180;50807;52.436;13.346;2023-06-14T02:36:34;101360.00;;;18.70
15845;BMP180;50807;52.436;13.346;2023-06-14T02:37:12;101359.00;;;18.60
15845;BMP180;50807;52.436;13.346;2023-06-14T02:37:43;101364.00;;;18.60
15845;BMP180;50807;52.436;13.346;2023-06-14T02:38:14;101360.00;;;18.60
15845;BMP180;50807;52.436;13.346;2023-06-14T02:38:46;101358.00;;;18.60
15845;BMP180;50807;52.436;13.346;2023-06-14T02:39:17;101356.00;;;18.60
15845;BMP180;50807;52.436;13.346;2023-06-14T02:39:52;101361.00;;;18.60
15845;BMP180;50807;52.436;13.346;2023-06-14T02:40:24;101366.00;;;18.60
15845;BMP180;50807;52.436;13.346;2023-06-14T02:40:55;101365.00;;;18.60
15845;BMP180;50807;52.436;13.346;2023-06-14T02:41:27;101358.00;;;18.60
15845;BMP180;50807;52.436;13.346;2023-06-14T02:41:58;101365.00;;;18.60
15845;BMP180;50807;52.436;13.346;2023-06-14T02:42:29;101363.00;;;18.60
15845;BMP180;50807;52.436;13.346;2023-06-14T02:43:01;101361.00;;;18.60
15845;BMP180;50807;52.436;13.346;2023-06-14T02:43:32;101362.00;;;18.60
15845;BMP180;50807;52.436;13.346;2023-06-14T02:44:04;101360.00;;;18.60
15845;BMP180;50807;52.436;13.346;2023-06-14T02:44:35;101363.00;;;18.60
15845;BMP180;50807;52.436;13.346;2023-06-14T02:45:08;101362.00;;;18.60
15845;BMP180;50807;52.436;13.346;2023-06-14T02:45:40;101361.00;;;18.60
15845;BMP180;50807;52.436;13.346;2023-06-14T02:46:11;101364.00;;;18.60
15845;BMP180;50807;52.436;13.346;2023-06-14T02:46:43;101365.00;;;18.60
15845;BMP180;50807;52.436;13.346;2023-06-14T02:47:14;101355.00;;;18.60
15845;BMP180;50807;52.436;13.346;2023-06-14T02:47:45;101364.00;;;18.60
15845;BMP180;50807;52.436;13.346;2023-06-14T02:48:17;101363.00;;;18.60
15845;BMP180;50807;52.436;13.346;2023-06-14T02:48:48;101360.00;;;18.60
15845;BMP180;50807;52.436;13.346;2023-06-14T02:49:19;101361.00;;;18.60
15845;BMP180;50807;52.436;13.346;2023-06-14T02:49:51;101361.00;;;18.50
15845;BMP180;50807;52.436;13.346;2023-06-14T02:50:22;101360.00;;;18.50
15845;BMP180;50807;52.436;13.346;2023-06-14T02:50:54;101355.00;;;18.50
15845;BMP180;50807;52.436;13.346;2023-06-14T02:51:27;101359.00;;;18.50
15845;BMP180;50807;52.436;13.346;2023-06-14T02:51:57;101357.00;;;18.50
15845;BMP180;50807;52.436;13.346;2023-06-14T02:52:29;101358.00;;;18.50
15845;BMP180;50807;52.436;13.346;2023-06-14T02:53:00;101363.00;;;18.50
15845;BMP180;50807;52.436;13.346;2023-06-14T02:53:33;101360.00;;;18.50
15845;BMP180;50807;52.436;13.346;2023-06-14T02:54:04;101359.00;;;18.50
15845;BMP180;50807;52.436;13.346;2023-06-14T02:54:36;101361.00;;;18.50
15845;BMP180;50807;52.436;13.346;2023-06-14T02:55:09;101355.00;;;18.40
15845;BMP180;50807;52.436;13.346;2023-06-14T02:55:40;101370.00;;;18.50
15845;BMP180;50807;52.436;13.346;2023-06-14T02:56:12;101370.00;;;18.50
15845;BMP180;50807;52.436;13.346;2023-06-14T02:56:44;101366.00;;;18.50
15845;BMP180;50807;52.436;13.346;2023-06-14T02:57:15;101364.00;;;18.50
15845;BMP180;50807;52.436;13.346;2023-06-14T02:57:45;101361.00;;;18.50
15845;BMP180;50807;52.436;13.346;2023-06-14T02:58:18;101360.00;;;18.50
15845;BMP180;50807;52.436;13.346;2023-06-14T02:58:49;101365.00;;;18.50
15845;BMP180;50807;52.436;13.346;2023-06-14T02:59:21;101360.00;;;18.50
15845;BMP180;50807;52.436;13.346;2023-06-14T02:59:55;101362.00;;;18.50
15845;BMP180;50807;52.436;13.346;2023-06-14T03:00:26;101352.00;;;18.50
15845;BMP180;50807;52.436;13.346;2023-06-14T03:00:57;101359.00;;;18.50
15845;BMP180;50807;52.436;13.346;2023-06-14T03:01:32;101367.00;;;18.50
15845;BMP180;50807;52.436;13.346;2023-06-14T03:02:05;101365.00;;;18.50
15845;BMP180;50807;52.436;13.346;2023-06-14T03:02:36;101356.00;;;18.50
15845;BMP180;50807;52.436;13.346;2023-06-14T03:03:08;101359.00;;;18.50